sensor_id;sensor_type;location;lat;lon;timestamp;pressure;altitude;pressure_sealevel;temperature;humidity
73267;BME280;61495;53.400;7.608;2022-07-05T00:00:44;102027.16;;;13.88;64.53
73267;BME280;61495;53.400;7.608;2022-07-05T00:03:10;102033.16;;;13.90;64.66
73267;BME280;61495;53.400;7.608;2022-07-05T00:05:37;102023.19;;;13.84;65.01
73267;BME280;61495;53.400;7.608;2022-07-05T00:08:04;102015.69;;;13.73;64.98
73267;BME280;61495;53.400;7.608;2022-07-05T00:10:30;102032.72;;;13.80;65.51
73267;BME280;61495;53.400;7.608;2022-07-05T00:12:56;102020.03;;;13.74;65.57
73267;BME280;61495;53.400;7.608;2022-07-05T00:15:21;102026.22;;;13.75;65.92
73267;BME280;61495;53.400;7.608;2022-07-05T00:17:47;102029.13;;;13.73;65.87
73267;BME280;61495;53.400;7.608;2022-07-05T00:20:13;102029.53;;;13.70;65.89
73267;BME280;61495;53.400;7.608;2022-07-05T00:22:39;102022.84;;;13.60;66.06
73267;BME280;61495;53.400;7.608;2022-07-05T00:25:04;102028.66;;;13.63;66.15
73267;BME280;61495;53.400;7.608;2022-07-05T00:27:30;102030.28;;;13.58;66.05
73267;BME280;61495;53.400;7.608;2022-07-05T00:29:55;102017.59;;;13.52;66.35
73267;BME280;61495;53.400;7.608;2022-07-05T00:32:20;102018.22;;;13.47;66.23
73267;BME280;61495;53.400;7.608;2022-07-05T00:34:46;102011.31;;;13.38;66.35
73267;BME280;61495;53.400;7.608;2022-07-05T00:37:11;102023.97;;;13.44;66.46
73267;BME280;61495;53.400;7.608;2022-07-05T00:39:37;102019.56;;;13.36;66.25
73267;BME280;61495;53.400;7.608;2022-07-05T00:42:02;102024.94;;;13.36;66.80
73267;BME280;61495;53.400;7.608;2022-07-05T00:44:47;102033.84;;;13.37;66.83
73267;BME280;61495;53.400;7.608;2022-07-05T00:47:13;102030.09;;;13.31;67.15
73267;BME280;61495;53.400;7.608;2022-07-05T00:49:39;102013.66;;;13.20;67.25
73267;BME280;61495;53.400;7.608;2022-07-05T00:52:05;102023.00;;;13.24;66.99
73267;BME280;61495;53.400;7.608;2022-07-05T00:54:35;102008.03;;;13.15;67.08
73267;BME280;61495;53.400;7.608;2022-07-05T00:57:02;102020.44;;;13.16;67.24
73267;BME280;61495;53.400;7.608;2022-07-05T00:59:28;102025.19;;;13.14;67.31
73267;BME280;61495;53.400;7.608;2022-07-05T01:01:54;102013.81;;;13.12;67.47
73267;BME280;61495;53.400;7.608;2022-07-05T01:04:19;102021.56;;;13.07;67.52
73267;BME280;61495;53.400;7.608;2022-07-05T01:06:47;102012.63;;;13.00;67.50
73267;BME280;61495;53.400;7.608;2022-07-05T01:09:13;102014.47;;;12.99;67.90
73267;BME280;61495;53.400;7.608;2022-07-05T01:11:41;102012.19;;;12.96;68.10
73267;BME280;61495;53.400;7.608;2022-07-05T01:14:08;102027.72;;;13.01;68.00
73267;BME280;61495;53.400;7.608;2022-07-05T01:16:37;102023.13;;;12.95;68.19
73267;BME280;61495;53.400;7.608;2022-07-05T01:19:04;102033.88;;;12.95;68.27
73267;BME280;61495;53.400;7.608;2022-07-05T01:21:33;102011.47;;;12.88;68.30
73267;BME280;61495;53.400;7.608;2022-07-05T01:24:01;102017.69;;;12.88;68.37
73267;BME280;61495;53.400;7.608;2022-07-05T01:26:27;102007.72;;;12.82;68.79
73267;BME280;61495;53.400;7.608;2022-07-05T01:28:52;102006.50;;;12.85;68.94
73267;BME280;61495;53.400;7.608;2022-07-05T01:31:18;102002.72;;;12.79;68.53
73267;BME280;61495;53.400;7.608;2022-07-05T01:33:43;102010.78;;;12.79;68.45
73267;BME280;61495;53.400;7.608;2022-07-05T01:36:11;102010.50;;;12.74;68.98
73267;BME280;61495;53.400;7.608;2022-07-05T01:38:36;102011.56;;;12.73;69.04
73267;BME280;61495;53.400;7.608;2022-07-05T01:41:02;102015.47;;;12.70;68.67
73267;BME280;61495;53.400;7.608;2022-07-05T01:43:27;102014.16;;;12.66;68.64
73267;BME280;61495;53.400;7.608;2022-07-05T01:45:54;102007.88;;;12.59;68.50
73267;BME280;61495;53.400;7.608;2022-07-05T01:48:21;102009.75;;;12.59;68.20
73267;BME280;61495;53.400;7.608;2022-07-05T01:50:54;102023.00;;;12.60;68.61
73267;BME280;61495;53.400;7.608;2022-07-05T01:53:24;102002.00;;;12.49;68.48
73267;BME280;61495;53.400;7.608;2022-07-05T01:55:52;102009.47;;;12.54;68.69
73267;BME280;61495;53.400;7.608;2022-07-05T01:58:18;102017.75;;;12.52;69.14
73267;BME280;61495;53.400;7.608;2022-07-05T02:00:45;102016.19;;;12.43;68.96
73267;BME280;61495;53.400;7.608;2022-07-05T02:03:12;101999.81;;;12.38;68.86
73267;BME280;61495;53.400;7.608;2022-07-05T02:05:38;101998.16;;;12.37;68.84
73267;BME280;61495;53.400;7.608;2022-07-05T02:08:04;102004.34;;;12.38;68.85
73267;BME280;61495;53.400;7.608;2022-07-05T02:10:29;101992.22;;;12.27;69.33
73267;BME280;61495;53.400;7.608;2022-07-05T02:12:54;102004.28;;;12.31;69.52
73267;BME280;61495;53.400;7.608;2022-07-05T02:15:20;102014.03;;;12.32;69.42
73267;BME280;61495;53.400;7.608;2022-07-05T02:17:45;101996.97;;;12.25;70.28
73267;BME280;61495;53.400;7.608;2022-07-05T02:20:11;101991.34;;;12.20;70.20
73267;BME280;61495;53.400;7.608;2022-07-05T02:22:36;101999.66;;;12.25;70.89
73267;BME280;61495;53.400;7.608;2022-07-05T02:25:01;102004.66;;;12.28;70.38
73267;BME280;61495;53.400;7.608;2022-07-05T02:27:27;102003.34;;;12.24;70.94
73267;BME280;61495;53.400;7.608;2022-07-05T02:29:52;102015.41;;;12.28;70.34
73267;BME280;61495;53.400;7.608;2022-07-05T02:32:18;101977.56;;;12.08;70.92
73267;BME280;61495;53.400;7.608;2022-07-05T02:34:43;102016.63;;;12.25;71.00
73267;BME280;61495;53.400;7.608;2022-07-05T02:37:08;102010.41;;;12.25;70.98
73267;BME280;61495;53.400;7.608;2022-07-05T02:39:34;102019.09;;;12.27;71.08
73267;BME280;61495;53.400;7.608;2022-07-05T02:41:59;102001.25;;;12.19;70.86
73267;BME280;61495;53.400;7.608;2022-07-05T02:44:25;102004.56;;;12.21;71.05
73267;BME280;61495;53.400;7.608;2022-07-05T02:46:50;102012.47;;;12.23;71.17
73267;BME280;61495;53.400;7.608;2022-07-05T02:49:15;102007.91;;;12.23;71.15
73267;BME280;61495;53.400;7.608;2022-07-05T02:51:40;102013.47;;;12.22;71.26
73267;BME280;61495;53.400;7.608;2022-07-05T02:54:06;102010.16;;;12.20;71.05
73267;BME280;61495;53.400;7.608;2022-07-05T02:56:31;102012.47;;;12.23;71.16
73267;BME280;61495;53.400;7.608;2022-07-05T02:58:57;102000.78;;;12.16;71.17
73267;BME280;61495;53.400;7.608;2022-07-05T03:01:22;102017.84;;;12.23;71.68
73267;BME280;61495;53.400;7.608;2022-07-05T03:03:47;102012.84;;;12.20;71.72
73267;BME280;61495;53.400;7.608;2022-07-05T03:06:13;102016.78;;;12.24;71.65
73267;BME280;61495;53.400;7.608;2022-07-05T03:08:38;102007.84;;;12.17;71.54
73267;BME280;61495;53.400;7.608;2022-07-05T03:11:03;102014.47;;;12.21;71.98
73267;BME280;61495;53.400;7.608;2022-07-05T03:13:29;102006.53;;;12.13;71.69
73267;BME280;61495;53.400;7.608;2022-07-05T03:15:54;102002.84;;;12.14;71.53
73267;BME280;61495;53.400;7.608;2022-07-05T03:18:19;102011.34;;;12.17;71.78
73267;BME280;61495;53.400;7.608;2022-07-05T03:20:45;102021.53;;;12.22;71.76
73267;BME280;61495;53.400;7.608;2022-07-05T03:23:10;102011.16;;;12.19;71.64
73267;BME280;61495;53.400;7.608;2022-07-05T03:25:36;102022.16;;;12.24;72.41
73267;BME280;61495;53.400;7.608;2022-07-05T03:28:01;102019.84;;;12.21;71.72
73267;BME280;61495;53.400;7.608;2022-07-05T03:30:27;102022.16;;;12.24;72.13
73267;BME280;61495;53.400;7.608;2022-07-05T03:32:52;102015.69;;;12.18;71.89
73267;BME280;61495;53.400;7.608;2022-07-05T03:35:17;102011.53;;;12.16;72.04
73267;BME280;61495;53.400;7.608;2022-07-05T03:37:43;102016.53;;;12.19;71.72
73267;BME280;61495;53.400;7.608;2022-07-05T03:40:08;102005.53;;;12.14;71.80
73267;BME280;61495;53.400;7.608;2022-07-05T03:42:34;102008.22;;;12.14;71.98
73267;BME280;61495;53.400;7.608;2022-07-05T03:45:00;102007.00;;;12.16;72.12
73267;BME280;61495;53.400;7.608;2022-07-05T03:47:26;102029.59;;;12.22;72.31
73267;BME280;61495;53.400;7.608;2022-07-05T03:49:51;102028.97;;;12.20;71.61
73267;BME280;61495;53.400;7.608;2022-07-05T03:52:17;102031.81;;;12.18;71.55
73267;BME280;61495;53.400;7.608;2022-07-05T03:54:42;102036.81;;;12.21;72.00
73267;BME280;61495;53.400;7.608;2022-07-05T03:57:10;102029.03;;;12.12;72.27
73267;BME280;61495;53.400;7.608;2022-07-05T03:59:36;102031.66;;;12.20;72.58
73267;BME280;61495;53.400;7.608;2022-07-05T04:02:01;102037.44;;;12.23;72.64
73267;BME280;61495;53.400;7.608;2022-07-05T04:04:27;102044.03;;;12.21;72.19
73267;BME280;61495;53.400;7.608;2022-07-05T04:06:52;102032.66;;;12.19;72.08
73267;BME280;61495;53.400;7.608;2022-07-05T04:09:19;102040.97;;;12.24;72.38
73267;BME280;61495;53.400;7.608;2022-07-05T04:11:44;102047.66;;;12.28;72.47
73267;BME280;61495;53.400;7.608;2022-07-05T04:14:09;102059.03;;;12.30;71.87
73267;BME280;61495;53.400;7.608;2022-07-05T04:16:37;102047.66;;;12.28;72.53
73267;BME280;61495;53.400;7.608;2022-07-05T04:19:02;102042.66;;;12.25;72.07
73267;BME280;61495;53.400;7.608;2022-07-05T04:21:28;102049.34;;;12.29;72.09
73267;BME280;61495;53.400;7.608;2022-07-05T04:23:53;102051.63;;;12.32;72.45
73267;BME280;61495;53.400;7.608;2022-07-05T04:26:19;102044.13;;;12.27;72.31
73267;BME280;61495;53.400;7.608;2022-07-05T04:28:44;102053.94;;;12.35;72.38
73267;BME280;61495;53.400;7.608;2022-07-05T04:31:10;102041.81;;;12.24;72.48
73267;BME280;61495;53.400;7.608;2022-07-05T04:33:35;102044.00;;;12.36;72.49
73267;BME280;61495;53.400;7.608;2022-07-05T04:36:01;102039.00;;;12.33;72.66
73267;BME280;61495;53.400;7.608;2022-07-05T04:38:26;102039.84;;;12.33;72.78
73267;BME280;61495;53.400;7.608;2022-07-05T04:40:52;102052.75;;;12.38;72.54
73267;BME280;61495;53.400;7.608;2022-07-05T04:43:17;102049.94;;;12.46;72.61
73267;BME280;61495;53.400;7.608;2022-07-05T04:45:43;102051.41;;;12.48;72.57
73267;BME280;61495;53.400;7.608;2022-07-05T04:48:08;102037.03;;;12.41;72.57
73267;BME280;61495;53.400;7.608;2022-07-05T04:50:33;102049.72;;;12.47;72.84
73267;BME280;61495;53.400;7.608;2022-07-05T04:52:59;102056.59;;;12.50;73.37
73267;BME280;61495;53.400;7.608;2022-07-05T04:55:24;102059.09;;;12.51;72.57
73267;BME280;61495;53.400;7.608;2022-07-05T04:57:50;102060.00;;;12.58;73.24
73267;BME280;61495;53.400;7.608;2022-07-05T05:00:15;102066.28;;;12.65;72.67
73267;BME280;61495;53.400;7.608;2022-07-05T05:02:41;102064.88;;;12.69;73.10
73267;BME280;61495;53.400;7.608;2022-07-05T05:05:07;102069.13;;;12.78;72.93
73267;BME280;61495;53.400;7.608;2022-07-05T05:07:33;102071.66;;;12.87;73.23
73267;BME280;61495;53.400;7.608;2022-07-05T05:09:59;102064.19;;;13.03;73.08
73267;BME280;61495;53.400;7.608;2022-07-05T05:12:25;102070.50;;;13.10;73.14
73267;BME280;61495;53.400;7.608;2022-07-05T05:14:51;102064.34;;;13.16;72.97
73267;BME280;61495;53.400;7.608;2022-07-05T05:17:16;102055.88;;;13.19;74.01
73267;BME280;61495;53.400;7.608;2022-07-05T05:19:42;102078.91;;;13.50;72.85
73267;BME280;61495;53.400;7.608;2022-07-05T05:22:08;102072.25;;;13.73;72.77
73267;BME280;61495;53.400;7.608;2022-07-05T05:24:33;102070.72;;;13.99;73.05
73267;BME280;61495;53.400;7.608;2022-07-05T05:27:00;102069.63;;;14.27;72.87
73267;BME280;61495;53.400;7.608;2022-07-05T05:29:25;102077.88;;;14.60;72.56
73267;BME280;61495;53.400;7.608;2022-07-05T05:31:51;102057.19;;;14.80;72.49
73267;BME280;61495;53.400;7.608;2022-07-05T05:34:16;102063.22;;;15.09;72.23
73267;BME280;61495;53.400;7.608;2022-07-05T05:36:42;102044.78;;;15.32;71.83
73267;BME280;61495;53.400;7.608;2022-07-05T05:39:07;102054.53;;;15.66;71.91
73267;BME280;61495;53.400;7.608;2022-07-05T05:41:32;102061.53;;;15.93;71.03
73267;BME280;61495;53.400;7.608;2022-07-05T05:43:58;102060.63;;;16.19;70.84
73267;BME280;61495;53.400;7.608;2022-07-05T05:46:23;102056.59;;;16.41;70.39
73267;BME280;61495;53.400;7.608;2022-07-05T05:48:49;102050.06;;;16.61;69.61
73267;BME280;61495;53.400;7.608;2022-07-05T05:51:14;102065.72;;;16.84;69.11
73267;BME280;61495;53.400;7.608;2022-07-05T05:53:39;102078.06;;;17.11;69.12
73267;BME280;61495;53.400;7.608;2022-07-05T05:56:05;102077.69;;;17.33;68.54
73267;BME280;61495;53.400;7.608;2022-07-05T05:58:30;102071.47;;;17.50;68.40
73267;BME280;61495;53.400;7.608;2022-07-05T06:00:56;102081.25;;;17.76;67.89
73267;BME280;61495;53.400;7.608;2022-07-05T06:03:24;102092.66;;;18.03;67.43
73267;BME280;61495;53.400;7.608;2022-07-05T06:05:50;102091.19;;;18.25;67.06
73267;BME280;61495;53.400;7.608;2022-07-05T06:08:16;102084.66;;;18.44;66.71
73267;BME280;61495;53.400;7.608;2022-07-05T06:10:42;102094.63;;;18.68;66.10
73267;BME280;61495;53.400;7.608;2022-07-05T06:13:10;102103.00;;;18.97;65.33
73267;BME280;61495;53.400;7.608;2022-07-05T06:15:37;102097.34;;;19.10;65.26
73267;BME280;61495;53.400;7.608;2022-07-05T06:18:03;102091.94;;;19.21;65.10
73267;BME280;61495;53.400;7.608;2022-07-05T06:20:31;102100.19;;;19.45;64.89
73267;BME280;61495;53.400;7.608;2022-07-05T06:22:58;102092.28;;;19.66;64.75
73267;BME280;61495;53.400;7.608;2022-07-05T06:25:24;102097.13;;;19.76;64.04
73267;BME280;61495;53.400;7.608;2022-07-05T06:27:56;102107.31;;;19.80;62.62
73267;BME280;61495;53.400;7.608;2022-07-05T06:30:24;102093.00;;;19.85;63.33
73267;BME280;61495;53.400;7.608;2022-07-05T06:32:51;102101.63;;;19.93;63.07
73267;BME280;61495;53.400;7.608;2022-07-05T06:35:17;102094.28;;;19.82;62.50
73267;BME280;61495;53.400;7.608;2022-07-05T06:37:47;102103.13;;;19.89;62.22
73267;BME280;61495;53.400;7.608;2022-07-05T06:40:17;102097.84;;;19.83;62.32
73267;BME280;61495;53.400;7.608;2022-07-05T06:42:42;102103.88;;;19.85;62.39
73267;BME280;61495;53.400;7.608;2022-07-05T06:45:08;102106.22;;;19.93;62.32
73267;BME280;61495;53.400;7.608;2022-07-05T06:47:34;102114.84;;;20.02;61.32
73267;BME280;61495;53.400;7.608;2022-07-05T06:49:59;102099.22;;;20.09;62.10
73267;BME280;61495;53.400;7.608;2022-07-05T06:52:25;102109.03;;;20.21;61.30
73267;BME280;61495;53.400;7.608;2022-07-05T06:54:50;102106.56;;;20.31;61.85
73267;BME280;61495;53.400;7.608;2022-07-05T06:57:20;102108.41;;;20.54;61.60
73267;BME280;61495;53.400;7.608;2022-07-05T06:59:46;102102.00;;;20.60;60.46
73267;BME280;61495;53.400;7.608;2022-07-05T07:02:11;102102.16;;;20.70;60.56
73267;BME280;61495;53.400;7.608;2022-07-05T07:04:36;102097.16;;;20.79;59.87
73267;BME280;61495;53.400;7.608;2022-07-05T07:07:02;102111.25;;;21.04;59.69
73267;BME280;61495;53.400;7.608;2022-07-05T07:09:27;102111.09;;;21.22;59.08
73267;BME280;61495;53.400;7.608;2022-07-05T07:11:53;102097.28;;;21.29;58.45
73267;BME280;61495;53.400;7.608;2022-07-05T07:14:18;102109.88;;;21.46;58.43
73267;BME280;61495;53.400;7.608;2022-07-05T07:16:43;102118.19;;;21.56;57.50
73267;BME280;61495;53.400;7.608;2022-07-05T07:19:09;102115.31;;;21.46;55.98
73267;BME280;61495;53.400;7.608;2022-07-05T07:21:34;102111.75;;;21.63;56.83
73267;BME280;61495;53.400;7.608;2022-07-05T07:24:00;102112.47;;;21.75;56.45
73267;BME280;61495;53.400;7.608;2022-07-05T07:26:26;102110.91;;;21.79;56.42
73267;BME280;61495;53.400;7.608;2022-07-05T07:28:51;102112.53;;;21.80;56.14
73267;BME280;61495;53.400;7.608;2022-07-05T07:31:17;102107.28;;;21.73;55.60
73267;BME280;61495;53.400;7.608;2022-07-05T07:33:42;102117.38;;;21.89;55.39
73267;BME280;61495;53.400;7.608;2022-07-05T07:36:08;102124.78;;;22.10;56.33
73267;BME280;61495;53.400;7.608;2022-07-05T07:38:33;102116.97;;;22.19;55.91
73267;BME280;61495;53.400;7.608;2022-07-05T07:40:59;102111.16;;;22.32;55.91
73267;BME280;61495;53.400;7.608;2022-07-05T07:43:26;102120.53;;;22.63;55.92
73267;BME280;61495;53.400;7.608;2022-07-05T07:45:51;102118.63;;;22.63;52.05
73267;BME280;61495;53.400;7.608;2022-07-05T07:48:17;102114.84;;;22.64;52.29
73267;BME280;61495;53.400;7.608;2022-07-05T07:50:42;102126.56;;;22.87;54.07
73267;BME280;61495;53.400;7.608;2022-07-05T07:53:08;102125.66;;;23.03;54.62
73267;BME280;61495;53.400;7.608;2022-07-05T07:55:33;102131.44;;;23.06;52.04
73267;BME280;61495;53.400;7.608;2022-07-05T07:57:58;102128.19;;;23.09;52.10
73267;BME280;61495;53.400;7.608;2022-07-05T08:00:24;102119.91;;;23.04;51.15
73267;BME280;61495;53.400;7.608;2022-07-05T08:02:50;102129.41;;;22.97;50.76
73267;BME280;61495;53.400;7.608;2022-07-05T08:05:15;102128.38;;;23.03;51.49
73267;BME280;61495;53.400;7.608;2022-07-05T08:07:40;102121.16;;;23.18;51.31
73267;BME280;61495;53.400;7.608;2022-07-05T08:10:06;102131.31;;;23.23;50.89
73267;BME280;61495;53.400;7.608;2022-07-05T08:12:32;102118.81;;;23.32;52.36
73267;BME280;61495;53.400;7.608;2022-07-05T08:14:58;102119.19;;;23.41;50.78
73267;BME280;61495;53.400;7.608;2022-07-05T08:17:23;102129.50;;;23.60;51.35
73267;BME280;61495;53.400;7.608;2022-07-05T08:19:48;102119.09;;;23.31;48.72
73267;BME280;61495;53.400;7.608;2022-07-05T08:22:33;102130.03;;;23.31;49.33
73267;BME280;61495;53.400;7.608;2022-07-05T08:24:58;102131.66;;;23.32;48.93
73267;BME280;61495;53.400;7.608;2022-07-05T08:27:24;102131.28;;;23.45;50.49
73267;BME280;61495;53.400;7.608;2022-07-05T08:29:49;102134.78;;;23.40;48.54
73267;BME280;61495;53.400;7.608;2022-07-05T08:32:16;102146.16;;;23.32;49.22
73267;BME280;61495;53.400;7.608;2022-07-05T08:34:41;102134.19;;;23.38;49.49
73267;BME280;61495;53.400;7.608;2022-07-05T08:37:07;102130.84;;;23.31;49.00
73267;BME280;61495;53.400;7.608;2022-07-05T08:39:33;102131.72;;;23.37;49.00
73267;BME280;61495;53.400;7.608;2022-07-05T08:41:59;102137.25;;;23.15;48.32
73267;BME280;61495;53.400;7.608;2022-07-05T08:44:27;102139.16;;;22.88;47.38
73267;BME280;61495;53.400;7.608;2022-07-05T08:46:55;102124.84;;;22.81;48.79
73267;BME280;61495;53.400;7.608;2022-07-05T08:49:27;102136.38;;;22.83;48.78
73267;BME280;61495;53.400;7.608;2022-07-05T08:51:54;102142.28;;;22.75;48.68
73267;BME280;61495;53.400;7.608;2022-07-05T08:54:20;102145.56;;;22.72;48.16
73267;BME280;61495;53.400;7.608;2022-07-05T08:56:45;102142.50;;;22.68;49.59
73267;BME280;61495;53.400;7.608;2022-07-05T08:59:11;102141.50;;;22.57;49.09
73267;BME280;61495;53.400;7.608;2022-07-05T09:01:38;102132.06;;;22.65;49.04
73267;BME280;61495;53.400;7.608;2022-07-05T09:04:07;102149.69;;;22.74;49.19
73267;BME280;61495;53.400;7.608;2022-07-05T09:06:36;102152.50;;;22.84;50.42
73267;BME280;61495;53.400;7.608;2022-07-05T09:09:03;102146.97;;;23.01;51.53
73267;BME280;61495;53.400;7.608;2022-07-05T09:11:35;102152.00;;;23.14;50.89
73267;BME280;61495;53.400;7.608;2022-07-05T09:14:03;102144.81;;;23.35;51.54
73267;BME280;61495;53.400;7.608;2022-07-05T09:16:30;102136.59;;;23.61;51.26
73267;BME280;61495;53.400;7.608;2022-07-05T09:19:04;102142.16;;;23.71;50.69
73267;BME280;61495;53.400;7.608;2022-07-05T09:21:29;102151.97;;;23.67;48.48
73267;BME280;61495;53.400;7.608;2022-07-05T09:26:32;102152.38;;;23.81;47.55
73267;BME280;61495;53.400;7.608;2022-07-05T09:28:58;102160.38;;;23.93;48.30
73267;BME280;61495;53.400;7.608;2022-07-05T09:31:31;102148.81;;;23.86;46.58
73267;BME280;61495;53.400;7.608;2022-07-05T09:34:10;102160.78;;;23.69;46.54
73267;BME280;61495;53.400;7.608;2022-07-05T09:42:13;102168.31;;;23.94;48.08
73267;BME280;61495;53.400;7.608;2022-07-05T09:44:47;102160.69;;;23.96;48.67
73267;BME280;61495;53.400;7.608;2022-07-05T09:47:15;102157.19;;;23.69;46.92
73267;BME280;61495;53.400;7.608;2022-07-05T09:49:42;102173.34;;;23.70;47.02
73267;BME280;61495;53.400;7.608;2022-07-05T09:52:08;102168.50;;;23.77;47.58
73267;BME280;61495;53.400;7.608;2022-07-05T09:54:33;102165.78;;;23.83;47.63
73267;BME280;61495;53.400;7.608;2022-07-05T09:56:59;102167.44;;;23.84;47.11
73267;BME280;61495;53.400;7.608;2022-07-05T09:59:24;102172.38;;;23.87;46.77
73267;BME280;61495;53.400;7.608;2022-07-05T10:01:50;102171.56;;;23.86;47.40
73267;BME280;61495;53.400;7.608;2022-07-05T10:04:16;102172.69;;;23.90;47.15
73267;BME280;61495;53.400;7.608;2022-07-05T10:06:42;102178.09;;;23.80;46.73
73267;BME280;61495;53.400;7.608;2022-07-05T10:09:09;102183.75;;;23.68;45.75
73267;BME280;61495;53.400;7.608;2022-07-05T10:11:40;102186.38;;;23.58;46.07
73267;BME280;61495;53.400;7.608;2022-07-05T10:14:15;102180.91;;;23.58;46.54
73267;BME280;61495;53.400;7.608;2022-07-05T10:16:45;102186.91;;;23.55;47.38
73267;BME280;61495;53.400;7.608;2022-07-05T10:19:17;102189.38;;;23.57;47.14
73267;BME280;61495;53.400;7.608;2022-07-05T10:21:43;102187.72;;;23.29;46.51
73267;BME280;61495;53.400;7.608;2022-07-05T10:24:09;102194.81;;;23.25;47.75
73267;BME280;61495;53.400;7.608;2022-07-05T10:26:35;102187.00;;;23.12;47.86
73267;BME280;61495;53.400;7.608;2022-07-05T10:29:02;102191.31;;;23.08;47.97
73267;BME280;61495;53.400;7.608;2022-07-05T10:31:28;102176.44;;;22.99;48.20
73267;BME280;61495;53.400;7.608;2022-07-05T10:33:55;102179.97;;;22.94;48.65
73267;BME280;61495;53.400;7.608;2022-07-05T10:36:22;102192.84;;;22.99;48.76
73267;BME280;61495;53.400;7.608;2022-07-05T10:38:48;102185.78;;;22.76;48.94
73267;BME280;61495;53.400;7.608;2022-07-05T10:41:18;102179.22;;;22.77;48.77
73267;BME280;61495;53.400;7.608;2022-07-05T10:43:53;102178.06;;;22.73;48.28
73267;BME280;61495;53.400;7.608;2022-07-05T10:46:33;102179.16;;;22.72;48.93
73267;BME280;61495;53.400;7.608;2022-07-05T10:49:14;102180.66;;;22.85;49.43
73267;BME280;61495;53.400;7.608;2022-07-05T10:51:41;102187.34;;;22.94;48.80
73267;BME280;61495;53.400;7.608;2022-07-05T10:54:07;102195.66;;;23.04;48.78
73267;BME280;61495;53.400;7.608;2022-07-05T10:56:32;102187.00;;;23.12;48.87
73267;BME280;61495;53.400;7.608;2022-07-05T10:59:06;102195.38;;;23.27;48.53
73267;BME280;61495;53.400;7.608;2022-07-05T11:01:35;102196.91;;;23.18;47.64
73267;BME280;61495;53.400;7.608;2022-07-05T11:06:40;102183.06;;;23.30;47.59
73267;BME280;61495;53.400;7.608;2022-07-05T11:11:45;102199.50;;;23.56;47.76
73267;BME280;61495;53.400;7.608;2022-07-05T11:16:44;102187.34;;;23.42;46.38
73267;BME280;61495;53.400;7.608;2022-07-05T11:19:13;102191.31;;;23.56;46.93
73267;BME280;61495;53.400;7.608;2022-07-05T11:22:03;102186.06;;;23.55;46.08
73267;BME280;61495;53.400;7.608;2022-07-05T11:24:31;102188.34;;;23.63;46.84
73267;BME280;61495;53.400;7.608;2022-07-05T11:26:58;102187.53;;;23.62;46.83
73267;BME280;61495;53.400;7.608;2022-07-05T11:34:36;102180.31;;;23.51;47.09
73267;BME280;61495;53.400;7.608;2022-07-05T11:39:40;102176.47;;;23.52;47.56
73267;BME280;61495;53.400;7.608;2022-07-05T11:42:08;102181.00;;;23.68;48.63
73267;BME280;61495;53.400;7.608;2022-07-05T11:44:34;102163.97;;;23.61;47.82
73267;BME280;61495;53.400;7.608;2022-07-05T11:47:00;102165.47;;;23.79;48.45
73267;BME280;61495;53.400;7.608;2022-07-05T11:49:26;102165.03;;;23.92;48.12
73267;BME280;61495;53.400;7.608;2022-07-05T11:52:02;102171.22;;;24.14;48.14
73267;BME280;61495;53.400;7.608;2022-07-05T11:54:32;102173.50;;;24.27;47.76
73267;BME280;61495;53.400;7.608;2022-07-05T11:57:01;102165.97;;;24.50;47.10
73267;BME280;61495;53.400;7.608;2022-07-05T11:59:27;102162.41;;;24.59;47.23
73267;BME280;61495;53.400;7.608;2022-07-05T12:01:55;102163.59;;;24.78;47.34
73267;BME280;61495;53.400;7.608;2022-07-05T12:04:28;102165.50;;;24.78;45.93
73267;BME280;61495;53.400;7.608;2022-07-05T12:06:55;102165.59;;;24.88;45.36
73267;BME280;61495;53.400;7.608;2022-07-05T12:09:26;102167.78;;;24.91;44.71
73267;BME280;61495;53.400;7.608;2022-07-05T12:11:53;102182.88;;;24.99;45.26
73267;BME280;61495;53.400;7.608;2022-07-05T12:14:37;102186.69;;;24.93;45.90
73267;BME280;61495;53.400;7.608;2022-07-05T12:17:16;102199.28;;;24.88;45.22
73267;BME280;61495;53.400;7.608;2022-07-05T12:19:42;102212.13;;;24.78;45.33
73267;BME280;61495;53.400;7.608;2022-07-05T12:22:07;102188.75;;;24.60;45.25
73267;BME280;61495;53.400;7.608;2022-07-05T12:24:34;102192.84;;;24.53;45.37
73267;BME280;61495;53.400;7.608;2022-07-05T12:27:00;102195.88;;;24.61;45.53
73267;BME280;61495;53.400;7.608;2022-07-05T12:29:26;102194.16;;;24.45;44.77
73267;BME280;61495;53.400;7.608;2022-07-05T12:32:05;102181.56;;;24.49;45.32
73267;BME280;61495;53.400;7.608;2022-07-05T12:34:34;102189.28;;;24.57;45.95
73267;BME280;61495;53.400;7.608;2022-07-05T12:37:00;102187.09;;;24.59;45.89
73267;BME280;61495;53.400;7.608;2022-07-05T12:39:25;102186.00;;;24.65;46.53
73267;BME280;61495;53.400;7.608;2022-07-05T12:41:51;102180.53;;;24.65;47.71
73267;BME280;61495;53.400;7.608;2022-07-05T12:44:20;102187.97;;;24.75;47.27
73267;BME280;61495;53.400;7.608;2022-07-05T12:46:47;102197.38;;;24.89;47.10
73267;BME280;61495;53.400;7.608;2022-07-05T12:49:15;102186.72;;;24.98;47.34
73267;BME280;61495;53.400;7.608;2022-07-05T12:51:43;102188.94;;;25.06;46.89
73267;BME280;61495;53.400;7.608;2022-07-05T12:54:20;102200.22;;;25.14;46.19
73267;BME280;61495;53.400;7.608;2022-07-05T12:57:04;102193.66;;;25.20;45.51
73267;BME280;61495;53.400;7.608;2022-07-05T13:00:06;102192.28;;;25.18;44.76
73267;BME280;61495;53.400;7.608;2022-07-05T13:05:00;102189.56;;;25.43;45.24
73267;BME280;61495;53.400;7.608;2022-07-05T13:07:26;102186.84;;;25.58;45.19
73267;BME280;61495;53.400;7.608;2022-07-05T13:09:52;102192.59;;;25.72;44.22
73267;BME280;61495;53.400;7.608;2022-07-05T13:12:20;102192.88;;;25.90;45.07
73267;BME280;61495;53.400;7.608;2022-07-05T13:14:51;102192.88;;;25.95;44.23